ESOK 142320Z AUTO 01003KT 9999 OVC017/// 12/12 Q1009